createdAt,value
2018-03-16T00:00:34.951Z,31.07
2018-03-16T00:03:02.451Z,34.37
2018-03-16T00:05:29.973Z,32.57
2018-03-16T00:07:58.215Z,31.40
2018-03-16T00:10:25.703Z,33.53
2018-03-16T00:12:53.959Z,33.50
2018-03-16T00:15:21.443Z,34.83
2018-03-16T00:17:49.686Z,35.60
2018-03-16T00:20:17.158Z,34.00
2018-03-16T00:22:44.646Z,32.73
2018-03-16T00:25:12.163Z,34.43
2018-03-16T00:27:39.630Z,32.60
2018-03-16T00:30:07.127Z,33.20
2018-03-16T00:32:34.658Z,36.43
2018-03-16T00:35:02.908Z,31.97
2018-03-16T00:37:30.382Z,31.90
2018-03-16T00:39:57.856Z,34.17
2018-03-16T00:42:26.109Z,33.70
2018-03-16T00:44:53.613Z,35.80
2018-03-16T00:47:21.116Z,34.50
2018-03-16T00:49:48.578Z,36.30
2018-03-16T00:52:16.064Z,36.10
2018-03-16T00:54:44.341Z,36.70
2018-03-16T00:57:12.610Z,35.40
2018-03-16T00:59:40.115Z,34.43
2018-03-16T01:02:07.619Z,33.57
2018-03-16T01:04:35.093Z,34.27
2018-03-16T01:07:03.382Z,33.10
2018-03-16T01:09:31.631Z,32.10
2018-03-16T01:11:59.211Z,32.57
2018-03-16T01:14:27.480Z,34.20
2018-03-16T01:16:54.957Z,35.53
2018-03-16T01:19:22.456Z,37.93
2018-03-16T01:21:49.957Z,33.43
2018-03-16T01:24:17.782Z,34.83
2018-03-16T01:26:45.266Z,34.30
2018-03-16T01:29:12.742Z,31.23
2018-03-16T01:31:40.986Z,33.30
2018-03-16T01:34:08.475Z,29.93
2018-03-16T01:36:36.724Z,33.40
2018-03-16T01:39:04.209Z,31.67
2018-03-16T01:41:31.679Z,29.50
2018-03-16T01:43:59.944Z,33.80
2018-03-16T01:46:27.427Z,32.90
2018-03-16T01:48:55.689Z,32.60
2018-03-16T01:51:23.923Z,32.70
2018-03-16T01:53:51.406Z,32.50
2018-03-16T01:56:18.914Z,33.23
2018-03-16T01:58:46.456Z,33.40
2018-03-16T02:01:14.813Z,33.00
2018-03-16T02:03:42.294Z,33.30
2018-03-16T02:06:09.771Z,35.40
2018-03-16T02:08:37.265Z,33.53
2018-03-16T02:11:04.741Z,34.33
2018-03-16T02:13:32.218Z,32.47
2018-03-16T02:16:00.473Z,33.67
2018-03-16T02:18:27.971Z,36.27
2018-03-16T02:20:55.442Z,31.20
2018-03-16T02:23:22.950Z,32.43
2018-03-16T02:25:50.434Z,30.50
2018-03-16T02:28:18.668Z,32.03
2018-03-16T02:30:46.129Z,34.10
2018-03-16T02:33:13.649Z,35.77
2018-03-16T02:35:41.124Z,30.40
2018-03-16T02:38:08.635Z,33.90
2018-03-16T02:40:36.115Z,36.43
2018-03-16T02:43:04.405Z,33.77
2018-03-16T02:45:31.871Z,33.33
2018-03-16T02:47:59.436Z,33.97
2018-03-16T02:50:26.901Z,32.23
2018-03-16T02:52:54.378Z,29.40
2018-03-16T02:55:21.851Z,30.43
2018-03-16T02:57:49.373Z,32.67
2018-03-16T03:00:16.839Z,31.60
2018-03-16T03:02:44.350Z,28.20
2018-03-16T03:05:12.595Z,28.17
2018-03-16T03:07:40.098Z,27.80
2018-03-16T03:10:08.358Z,31.23
2018-03-16T03:12:35.833Z,30.97
2018-03-16T03:15:04.085Z,31.07
2018-03-16T03:17:31.575Z,31.80
2018-03-16T03:19:59.814Z,31.20
2018-03-16T03:22:27.294Z,31.37
2018-03-16T03:24:55.567Z,29.60
2018-03-16T03:27:23.039Z,32.23
2018-03-16T03:29:51.278Z,31.63
2018-03-16T03:32:18.751Z,32.70
2018-03-16T03:34:46.259Z,30.27
2018-03-16T03:37:13.835Z,32.57
2018-03-16T03:39:42.031Z,30.43
2018-03-16T03:42:09.519Z,34.50
2018-03-16T03:44:37.764Z,31.80
2018-03-16T03:47:05.216Z,28.47
2018-03-16T03:49:32.703Z,29.50
2018-03-16T03:52:00.202Z,29.97
2018-03-16T03:54:27.686Z,30.20
2018-03-16T03:56:55.155Z,29.73
2018-03-16T03:59:22.711Z,25.60
2018-03-16T04:01:50.202Z,28.43
2018-03-16T04:04:18.069Z,30.27
2018-03-16T04:06:45.546Z,28.43
2018-03-16T04:09:13.827Z,28.03
2018-03-16T04:11:42.054Z,29.93
2018-03-16T04:14:09.545Z,32.93
2018-03-16T04:16:37.783Z,32.43
2018-03-16T04:19:05.272Z,37.70
2018-03-16T04:21:33.611Z,35.47
2018-03-16T04:24:01.096Z,33.93
2018-03-16T04:26:28.623Z,30.23
2018-03-16T04:28:56.087Z,27.70
2018-03-16T04:31:23.590Z,26.87
2018-03-16T04:33:51.064Z,30.77
2018-03-16T04:36:19.313Z,32.10
2018-03-16T04:38:46.974Z,30.40
2018-03-16T04:41:14.454Z,31.70
2018-03-16T04:43:42.703Z,33.37
2018-03-16T04:46:10.178Z,34.07
2018-03-16T04:48:38.444Z,35.47
2018-03-16T04:51:06.234Z,34.47
2018-03-16T04:53:33.734Z,33.37
2018-03-16T04:56:01.279Z,36.30
2018-03-16T04:58:28.806Z,33.13
2018-03-16T05:00:57.074Z,36.80
2018-03-16T05:03:25.319Z,33.70
2018-03-16T05:05:52.806Z,37.10
2018-03-16T05:08:20.282Z,37.47
2018-03-16T05:10:48.537Z,40.87
2018-03-16T05:13:16.025Z,39.53
2018-03-16T05:15:43.574Z,42.80
2018-03-16T05:18:11.060Z,43.17
2018-03-16T05:20:38.538Z,39.60
2018-03-16T05:23:06.012Z,41.07
2018-03-16T05:25:33.501Z,42.23
2018-03-16T05:28:00.979Z,42.30
2018-03-16T05:30:29.252Z,44.13
2018-03-16T05:32:57.492Z,42.80
2018-03-16T05:35:24.982Z,42.50
2018-03-16T05:37:53.238Z,45.27
2018-03-16T05:40:20.714Z,35.77
2018-03-16T05:42:49.019Z,39.00
2018-03-16T05:45:16.501Z,37.80
2018-03-16T05:47:44.027Z,35.60
2018-03-16T05:50:11.511Z,34.63
2018-03-16T05:52:39.063Z,34.50
2018-03-16T05:55:06.586Z,37.40
2018-03-16T05:57:34.834Z,36.17
2018-03-16T06:00:02.305Z,32.23
2018-03-16T06:02:29.819Z,38.03
2018-03-16T06:04:57.351Z,37.10
2018-03-16T06:07:25.587Z,28.73
2018-03-16T06:09:53.066Z,28.37
2018-03-16T06:12:20.555Z,30.70
2018-03-16T06:14:48.040Z,35.47
2018-03-16T06:17:15.525Z,33.17
2018-03-16T06:19:42.997Z,32.23
2018-03-16T06:22:10.459Z,33.03
2018-03-16T06:24:38.001Z,31.50
2018-03-16T06:27:05.470Z,29.73
2018-03-16T06:29:32.978Z,31.87
2018-03-16T06:32:00.439Z,30.20
2018-03-16T06:34:27.917Z,29.67
2018-03-16T06:36:55.426Z,30.47
2018-03-16T06:39:23.713Z,31.07
2018-03-16T06:41:51.942Z,29.30
2018-03-16T06:44:19.433Z,29.77
2018-03-16T06:46:46.896Z,29.90
2018-03-16T06:49:15.150Z,30.43
2018-03-16T06:51:42.620Z,26.80
2018-03-16T06:54:10.131Z,27.13
2018-03-16T06:56:37.629Z,28.60
2018-03-16T06:59:05.108Z,30.53
2018-03-16T07:01:33.358Z,29.83
2018-03-16T07:04:00.830Z,27.13
2018-03-16T07:06:28.346Z,27.63
2018-03-16T07:08:55.841Z,28.27
2018-03-16T07:11:23.341Z,26.03
2018-03-16T07:13:51.596Z,27.20
2018-03-16T07:16:19.074Z,25.17
2018-03-16T07:18:47.323Z,23.60
2018-03-16T07:21:14.834Z,20.13
2018-03-16T07:23:42.302Z,23.43
2018-03-16T07:26:09.790Z,22.20
2018-03-16T07:28:37.263Z,22.33
2018-03-16T07:31:04.744Z,23.07
2018-03-16T07:33:32.215Z,20.60
2018-03-16T07:35:59.696Z,22.77
2018-03-16T07:38:27.159Z,20.53
2018-03-16T07:40:54.659Z,19.80
2018-03-16T07:43:26.930Z,18.70
2018-03-16T07:46:00.353Z,20.80
2018-03-16T07:48:28.615Z,20.07
2018-03-16T07:50:56.867Z,22.00
2018-03-16T07:53:24.343Z,19.33
2018-03-16T07:55:51.828Z,21.83
2018-03-16T07:58:19.325Z,21.77
2018-03-16T08:00:46.804Z,22.30
2018-03-16T08:03:15.070Z,22.57
2018-03-16T08:05:42.558Z,22.73
2018-03-16T08:08:10.857Z,21.30
2018-03-16T08:10:38.348Z,23.40
2018-03-16T08:13:05.828Z,24.40
2018-03-16T08:15:33.312Z,20.73
2018-03-16T08:18:01.549Z,20.43
2018-03-16T08:20:29.740Z,21.57
2018-03-16T08:22:58.214Z,22.57
2018-03-16T08:25:25.980Z,22.67
2018-03-16T08:27:54.414Z,21.00
2018-03-16T08:30:21.999Z,21.53
2018-03-16T08:32:49.666Z,23.70
2018-03-16T08:38:09.837Z,21.30
2018-03-16T08:40:38.067Z,21.80
2018-03-16T08:43:10.319Z,22.97
2018-03-16T08:45:37.824Z,21.50
2018-03-16T08:48:05.436Z,23.10
2018-03-16T08:50:32.947Z,22.67
2018-03-16T08:53:00.429Z,21.57
2018-03-16T08:55:27.904Z,23.43
2018-03-16T08:57:55.515Z,23.17
2018-03-16T09:00:22.989Z,22.90
2018-03-16T09:02:50.556Z,21.60
2018-03-16T09:05:18.008Z,21.60
2018-03-16T09:07:46.111Z,24.50
2018-03-16T09:10:13.813Z,20.07
2018-03-16T09:12:41.369Z,19.53
2018-03-16T09:15:08.814Z,21.17
2018-03-16T09:17:37.074Z,19.83
2018-03-16T09:20:05.504Z,20.23
2018-03-16T09:22:33.010Z,20.73
2018-03-16T09:25:00.618Z,18.03
2018-03-16T09:27:28.142Z,23.93
2018-03-16T09:29:55.861Z,18.53
2018-03-16T09:32:23.553Z,19.37
2018-03-16T09:34:52.268Z,17.77
2018-03-16T09:37:19.770Z,17.97
2018-03-16T09:39:47.237Z,18.90
2018-03-16T09:42:17.203Z,20.80
2018-03-16T09:44:45.014Z,16.87
2018-03-16T09:47:13.654Z,19.50
2018-03-16T09:49:41.144Z,17.23
2018-03-16T09:52:09.026Z,14.80
2018-03-16T09:54:48.541Z,12.83
2018-03-16T09:57:16.107Z,15.30
2018-03-16T09:59:43.598Z,17.23
2018-03-16T10:02:11.129Z,14.47
2018-03-16T10:04:39.316Z,17.57
2018-03-16T10:07:06.845Z,16.77
2018-03-16T10:09:34.343Z,16.67
2018-03-16T10:12:01.877Z,15.90
2018-03-16T10:14:29.345Z,17.10
2018-03-16T10:16:56.835Z,17.27
2018-03-16T10:19:24.337Z,18.87
2018-03-16T10:21:52.671Z,16.80
2018-03-16T10:24:21.646Z,35.37
2018-03-16T10:26:49.896Z,25.43
2018-03-16T10:29:18.781Z,21.33
2018-03-16T10:31:46.396Z,20.20
2018-03-16T10:34:13.968Z,10.67
2018-03-16T10:36:41.747Z,10.63
2018-03-16T10:39:09.252Z,10.90
2018-03-16T10:41:39.260Z,6.83
2018-03-16T10:44:06.923Z,7.57
2018-03-16T10:46:34.410Z,8.10
2018-03-16T10:49:01.954Z,7.10
2018-03-16T10:51:29.492Z,7.30
2018-03-16T10:53:56.978Z,6.17
2018-03-16T10:56:24.520Z,6.87
2018-03-16T10:58:52.420Z,6.60
2018-03-16T11:04:14.434Z,5.40
2018-03-16T11:06:47.018Z,5.83
2018-03-16T11:09:14.985Z,4.87
2018-03-16T11:11:42.486Z,5.47
2018-03-16T11:14:09.997Z,5.13
2018-03-16T11:16:37.662Z,6.00
2018-03-16T11:19:05.164Z,6.43
2018-03-16T11:21:32.724Z,6.50
2018-03-16T11:24:01.094Z,5.27
2018-03-16T11:26:29.342Z,5.67
2018-03-16T11:28:57.583Z,6.97
2018-03-16T11:31:25.322Z,5.90
2018-03-16T11:33:54.394Z,7.07
2018-03-16T11:36:24.047Z,7.00
2018-03-16T11:38:51.792Z,6.20
2018-03-16T11:41:20.330Z,6.93
2018-03-16T11:43:49.668Z,5.10
2018-03-16T11:46:18.196Z,6.70
2018-03-16T11:48:45.791Z,6.90
2018-03-16T11:51:13.425Z,7.30
2018-03-16T11:53:41.651Z,6.80
2018-03-16T11:56:12.540Z,7.80
2018-03-16T11:58:40.017Z,7.13
2018-03-16T12:01:07.758Z,8.60
2018-03-16T12:03:35.446Z,9.10
2018-03-16T12:06:03.777Z,10.13
2018-03-16T12:08:34.586Z,9.30
2018-03-16T12:11:02.904Z,9.23
2018-03-16T12:13:30.366Z,11.03
2018-03-16T12:15:57.900Z,7.57
2018-03-16T12:18:25.778Z,8.70
2018-03-16T12:20:54.083Z,7.87
2018-03-16T12:23:21.623Z,7.50
2018-03-16T12:28:49.950Z,7.23
2018-03-16T12:31:14.630Z,7.87
2018-03-16T12:33:42.256Z,7.47
2018-03-16T12:36:09.939Z,5.23
2018-03-16T12:38:37.509Z,3.83
2018-03-16T12:41:05.010Z,4.00
2018-03-16T12:43:32.474Z,3.30
2018-03-16T12:45:59.936Z,3.93
2018-03-16T12:48:28.581Z,4.20
2018-03-16T12:50:56.822Z,3.50
2018-03-16T12:53:24.303Z,4.47
2018-03-16T12:55:51.777Z,5.00
2018-03-16T12:58:19.264Z,6.80
2018-03-16T13:00:47.319Z,6.07
2018-03-16T13:03:14.844Z,6.97
2018-03-16T13:05:42.334Z,8.03
2018-03-16T13:08:09.792Z,6.80
2018-03-16T13:10:37.266Z,6.60
2018-03-16T13:13:04.739Z,7.80
2018-03-16T13:15:32.994Z,7.87
2018-03-16T13:18:00.460Z,10.07
2018-03-16T13:20:27.998Z,8.30
2018-03-16T13:22:55.490Z,8.80
2018-03-16T13:25:23.016Z,9.50
2018-03-16T13:27:50.490Z,7.90
2018-03-16T13:30:17.981Z,9.30
2018-03-16T13:32:46.280Z,10.13
2018-03-16T13:35:13.765Z,10.37
2018-03-16T13:37:41.232Z,8.73
2018-03-16T13:40:08.766Z,9.87
2018-03-16T13:42:36.264Z,8.97
2018-03-16T13:45:03.769Z,8.80
2018-03-16T13:47:31.338Z,6.57
2018-03-16T13:49:58.889Z,8.07
2018-03-16T13:52:26.465Z,9.33
2018-03-16T13:54:53.948Z,9.30
2018-03-16T13:57:21.457Z,7.70
2018-03-16T13:59:49.142Z,5.70
2018-03-16T14:02:16.605Z,7.30
2018-03-16T14:04:44.088Z,8.07
2018-03-16T14:07:11.574Z,7.60
2018-03-16T14:09:39.082Z,7.20
2018-03-16T14:12:06.702Z,7.10
2018-03-16T14:14:34.207Z,7.00
2018-03-16T14:17:01.788Z,7.27
2018-03-16T14:19:29.528Z,7.87
2018-03-16T14:21:57.118Z,8.17
2018-03-16T14:24:24.641Z,6.07
2018-03-16T14:26:52.911Z,8.30
2018-03-16T14:29:20.435Z,15.33
2018-03-16T14:31:48.008Z,18.70
2018-03-16T14:34:16.584Z,21.33
2018-03-16T14:36:44.121Z,20.97
2018-03-16T14:39:11.848Z,20.60
2018-03-16T14:41:39.332Z,21.53
2018-03-16T14:44:08.650Z,22.37
2018-03-16T14:46:38.377Z,24.27
2018-03-16T14:49:09.587Z,22.90
2018-03-16T14:51:37.082Z,25.57
2018-03-16T14:54:04.601Z,27.13
2018-03-16T14:56:32.075Z,26.47
2018-03-16T14:58:59.550Z,28.50
2018-03-16T15:01:28.344Z,28.33
2018-03-16T15:03:58.182Z,30.23
2018-03-16T15:06:25.852Z,28.40
2018-03-16T15:08:53.377Z,26.90
2018-03-16T15:11:21.130Z,26.17
2018-03-16T15:13:48.736Z,27.80
2018-03-16T15:16:16.379Z,33.00
2018-03-16T15:18:44.129Z,32.13
2018-03-16T15:21:11.624Z,33.23
2018-03-16T15:23:39.111Z,33.13
2018-03-16T15:26:06.846Z,31.00
2018-03-16T15:28:35.486Z,30.63
2018-03-16T15:31:04.186Z,30.30
2018-03-16T15:33:31.776Z,31.20
2018-03-16T15:36:00.031Z,34.33
2018-03-16T15:38:28.648Z,37.00
2018-03-16T15:40:56.999Z,33.47
2018-03-16T15:43:29.218Z,31.33
2018-03-16T15:45:56.962Z,32.97
2018-03-16T15:48:24.415Z,32.10
2018-03-16T15:50:51.909Z,28.17
2018-03-16T15:53:20.192Z,31.10
2018-03-16T15:55:47.702Z,29.70
2018-03-16T15:58:15.182Z,28.97
2018-03-16T16:00:42.643Z,27.77
2018-03-16T16:03:15.918Z,25.73
2018-03-16T16:05:43.395Z,27.90
2018-03-16T16:08:11.063Z,25.90
2018-03-16T16:10:38.610Z,24.63
2018-03-16T16:13:06.108Z,25.30
2018-03-16T16:15:34.365Z,25.27
2018-03-16T16:18:02.652Z,25.07
2018-03-16T16:20:30.114Z,27.33
2018-03-16T16:22:58.362Z,28.50
2018-03-16T16:25:25.835Z,28.73
2018-03-16T16:27:53.339Z,25.73
2018-03-16T16:30:22.539Z,29.20
2018-03-16T16:32:50.109Z,27.30
2018-03-16T16:35:17.668Z,29.17
2018-03-16T16:37:45.164Z,31.13
2018-03-16T16:40:13.393Z,24.10
2018-03-16T16:42:41.157Z,33.47
2018-03-16T16:45:08.647Z,33.43
2018-03-16T16:47:36.106Z,37.53
2018-03-16T16:50:03.619Z,36.57
2018-03-16T16:52:31.845Z,39.50
2018-03-16T16:54:59.429Z,39.43
2018-03-16T16:57:27.604Z,38.20
2018-03-16T16:59:55.632Z,40.80
2018-03-16T17:02:23.300Z,42.20
2018-03-16T17:04:50.783Z,42.00
2018-03-16T17:07:18.270Z,41.20
2018-03-16T17:09:45.773Z,39.97
2018-03-16T17:12:13.297Z,40.90
2018-03-16T17:14:41.776Z,43.03
2018-03-16T17:17:10.021Z,40.10
2018-03-16T17:19:37.497Z,38.33
2018-03-16T17:22:05.015Z,35.10
2018-03-16T17:24:32.504Z,37.93
2018-03-16T17:27:00.718Z,39.43
2018-03-16T17:29:28.960Z,35.10
2018-03-16T17:31:56.453Z,33.90
2018-03-16T17:34:25.085Z,31.10
2018-03-16T17:36:53.236Z,36.63
2018-03-16T17:39:20.743Z,38.37
2018-03-16T17:41:48.550Z,34.60
2018-03-16T17:44:17.807Z,34.70
2018-03-16T17:46:47.346Z,31.57
2018-03-16T17:49:15.574Z,32.10
2018-03-16T17:51:43.063Z,32.23
2018-03-16T17:54:10.560Z,30.50
2018-03-16T17:56:38.055Z,30.77
2018-03-16T17:59:05.519Z,29.53
2018-03-16T18:01:33.230Z,29.67
2018-03-16T18:04:01.506Z,21.87
2018-03-16T18:06:30.243Z,24.63
2018-03-16T18:08:58.502Z,24.20
2018-03-16T18:11:26.720Z,25.10
2018-03-16T18:13:54.266Z,19.17
2018-03-16T18:16:21.739Z,23.07
2018-03-16T18:18:49.309Z,24.13
2018-03-16T18:21:17.555Z,23.30
2018-03-16T18:23:45.048Z,23.33
2018-03-16T18:26:12.528Z,22.97
2018-03-16T18:28:40.026Z,23.60
2018-03-16T18:31:07.506Z,25.80
2018-03-16T18:33:34.986Z,21.53
2018-03-16T18:36:03.236Z,21.10
2018-03-16T18:38:30.809Z,24.30
2018-03-16T18:40:58.312Z,22.57
2018-03-16T18:43:25.791Z,23.37
2018-03-16T18:45:53.288Z,24.07
2018-03-16T18:48:20.764Z,21.67
2018-03-16T18:50:49.013Z,21.70
2018-03-16T18:53:16.480Z,23.40
2018-03-16T18:55:43.999Z,19.57
2018-03-16T18:58:11.467Z,21.33
2018-03-16T19:00:38.979Z,21.90
2018-03-16T19:03:06.505Z,19.70
2018-03-16T19:05:33.982Z,20.87
2018-03-16T19:08:02.222Z,20.30
2018-03-16T19:10:29.686Z,20.03
2018-03-16T19:12:57.200Z,23.93
2018-03-16T19:15:24.686Z,19.87
2018-03-16T19:17:52.221Z,22.10
2018-03-16T19:20:19.745Z,20.13
2018-03-16T19:22:47.231Z,23.03
2018-03-16T19:25:15.486Z,26.50
2018-03-16T19:27:42.961Z,28.23
2018-03-16T19:30:11.207Z,23.50
2018-03-16T19:32:38.707Z,23.63
2018-03-16T19:35:06.959Z,25.53
2018-03-16T19:37:35.263Z,22.43
2018-03-16T19:40:02.761Z,21.50
2018-03-16T19:42:30.260Z,26.40
2018-03-16T19:44:58.538Z,25.90
2018-03-16T19:47:26.767Z,26.50
2018-03-16T19:49:54.270Z,26.27
2018-03-16T19:52:22.610Z,25.30
2018-03-16T19:54:50.086Z,28.97
2018-03-16T19:57:17.555Z,27.20
2018-03-16T19:59:45.025Z,23.60
2018-03-16T20:02:13.263Z,30.30
2018-03-16T20:04:40.740Z,26.87
2018-03-16T20:07:08.203Z,30.27
2018-03-16T20:09:35.678Z,26.47
2018-03-16T20:12:03.938Z,33.10
2018-03-16T20:14:31.414Z,29.93
2018-03-16T20:16:59.726Z,31.30
2018-03-16T20:19:27.246Z,28.63
2018-03-16T20:21:54.724Z,30.60
2018-03-16T20:24:23.086Z,30.47
2018-03-16T20:26:50.575Z,29.83
2018-03-16T20:29:18.166Z,29.97
2018-03-16T20:31:45.655Z,28.53
2018-03-16T20:34:13.126Z,28.40
2018-03-16T20:36:41.372Z,25.47
2018-03-16T20:39:08.841Z,27.77
2018-03-16T20:41:36.372Z,26.20
2018-03-16T20:44:03.873Z,25.97
2018-03-16T20:46:31.372Z,25.60
2018-03-16T20:48:58.845Z,26.03
2018-03-16T20:51:26.442Z,24.37
2018-03-16T20:53:53.920Z,25.13
2018-03-16T20:56:21.421Z,25.60
2018-03-16T20:58:48.949Z,30.10
2018-03-16T21:01:17.184Z,27.20
2018-03-16T21:03:44.677Z,32.47
2018-03-16T21:06:12.933Z,30.93
2018-03-16T21:08:40.402Z,34.33
2018-03-16T21:11:08.655Z,34.00
2018-03-16T21:13:36.123Z,32.30
2018-03-16T21:16:03.599Z,34.30
2018-03-16T21:18:31.865Z,30.37
2018-03-16T21:20:59.340Z,34.20
2018-03-16T21:23:27.640Z,33.50
2018-03-16T21:25:55.118Z,32.30
2018-03-16T21:28:22.614Z,32.93
2018-03-16T21:30:50.692Z,32.90
2018-03-16T21:33:18.288Z,32.63
2018-03-16T21:35:45.725Z,33.00
2018-03-16T21:38:14.081Z,31.57
2018-03-16T21:40:41.568Z,33.13
2018-03-16T21:43:09.843Z,31.10
2018-03-16T21:45:38.079Z,34.50
2018-03-16T21:48:05.561Z,31.73
2018-03-16T21:50:33.034Z,36.10
2018-03-16T21:53:01.279Z,34.37
2018-03-16T21:55:28.812Z,33.67
2018-03-16T21:57:56.275Z,35.10
2018-03-16T22:00:23.857Z,37.37
2018-03-16T22:02:54.121Z,32.63
2018-03-16T22:05:22.397Z,37.27
2018-03-16T22:07:51.779Z,35.37
2018-03-16T22:10:19.343Z,33.07
2018-03-16T22:12:46.818Z,35.77
2018-03-16T22:15:15.098Z,34.77
2018-03-16T22:17:42.562Z,35.77
2018-03-16T22:20:10.072Z,34.50
2018-03-16T22:22:37.646Z,33.00
2018-03-16T22:25:06.220Z,31.50
2018-03-16T22:27:33.787Z,31.10
2018-03-16T22:30:02.018Z,32.00
2018-03-16T22:32:29.621Z,32.80
2018-03-16T22:34:57.880Z,32.87
2018-03-16T22:37:25.395Z,33.30
2018-03-16T22:39:53.657Z,36.57
2018-03-16T22:42:21.154Z,36.17
2018-03-16T22:44:48.754Z,31.03
2018-03-16T22:47:16.227Z,33.73
2018-03-16T22:49:43.701Z,34.23
2018-03-16T22:52:11.947Z,36.10
2018-03-16T22:54:39.448Z,32.23
2018-03-16T22:57:06.950Z,28.40
2018-03-16T22:59:34.509Z,32.27
2018-03-16T23:02:01.977Z,32.83
2018-03-16T23:04:29.463Z,38.30
2018-03-16T23:06:56.935Z,35.57
2018-03-16T23:09:25.183Z,35.27
2018-03-16T23:11:52.871Z,28.47
2018-03-16T23:14:20.351Z,30.73
2018-03-16T23:16:47.815Z,35.50
2018-03-16T23:19:15.309Z,32.60
2018-03-16T23:21:42.820Z,32.90
2018-03-16T23:24:11.060Z,31.07
2018-03-16T23:26:38.550Z,34.63
2018-03-16T23:29:06.840Z,32.13
2018-03-16T23:31:34.321Z,30.47
2018-03-16T23:34:01.783Z,29.83
2018-03-16T23:36:29.286Z,33.90
2018-03-16T23:38:56.752Z,33.10
2018-03-16T23:41:24.224Z,35.20
2018-03-16T23:43:52.442Z,38.70
2018-03-16T23:46:20.060Z,38.07
2018-03-16T23:48:47.547Z,34.13
2018-03-16T23:51:15.034Z,35.87
2018-03-16T23:53:42.520Z,36.57
2018-03-16T23:56:10.006Z,37.03
2018-03-16T23:58:37.486Z,36.07
